sensor_id;sensor_type;location;lat;lon;timestamp;temperature;humidity
12408;DHT22;6268;48.188;17.134;2024-03-29T00:01:54;10.20;99.90
12408;DHT22;6268;48.188;17.134;2024-03-29T00:05:16;10.10;99.90
12408;DHT22;6268;48.188;17.134;2024-03-29T00:08:35;10.10;99.90
12408;DHT22;6268;48.188;17.134;2024-03-29T00:11:54;10.10;99.90
12408;DHT22;6268;48.188;17.134;2024-03-29T00:15:14;10.10;99.90
12408;DHT22;6268;48.188;17.134;2024-03-29T00:18:33;10.00;99.90
12408;DHT22;6268;48.188;17.134;2024-03-29T00:21:54;10.00;99.90
12408;DHT22;6268;48.188;17.134;2024-03-29T00:25:14;9.90;99.90
12408;DHT22;6268;48.188;17.134;2024-03-29T00:28:33;9.70;99.90
12408;DHT22;6268;48.188;17.134;2024-03-29T00:31:53;9.70;99.90
12408;DHT22;6268;48.188;17.134;2024-03-29T00:35:12;9.70;99.90
12408;DHT22;6268;48.188;17.134;2024-03-29T00:38:33;9.70;99.90
12408;DHT22;6268;48.188;17.134;2024-03-29T00:41:52;9.70;99.90
12408;DHT22;6268;48.188;17.134;2024-03-29T00:45:12;9.70;99.90
12408;DHT22;6268;48.188;17.134;2024-03-29T00:48:31;9.70;99.90
12408;DHT22;6268;48.188;17.134;2024-03-29T00:51:51;9.70;99.90
12408;DHT22;6268;48.188;17.134;2024-03-29T00:55:12;9.70;99.90
12408;DHT22;6268;48.188;17.134;2024-03-29T00:58:31;9.70;99.90
12408;DHT22;6268;48.188;17.134;2024-03-29T01:01:51;9.70;99.90
12408;DHT22;6268;48.188;17.134;2024-03-29T01:05:10;9.70;99.90
12408;DHT22;6268;48.188;17.134;2024-03-29T01:08:30;9.70;99.90
12408;DHT22;6268;48.188;17.134;2024-03-29T01:11:51;9.60;99.90
12408;DHT22;6268;48.188;17.134;2024-03-29T01:15:11;9.50;99.90
12408;DHT22;6268;48.188;17.134;2024-03-29T01:18:31;9.50;99.90
12408;DHT22;6268;48.188;17.134;2024-03-29T01:21:50;9.40;99.90
12408;DHT22;6268;48.188;17.134;2024-03-29T01:25:10;9.30;99.90
12408;DHT22;6268;48.188;17.134;2024-03-29T01:28:31;9.30;99.90
12408;DHT22;6268;48.188;17.134;2024-03-29T01:31:51;9.20;99.90
12408;DHT22;6268;48.188;17.134;2024-03-29T01:35:10;9.20;99.90
12408;DHT22;6268;48.188;17.134;2024-03-29T01:38:30;9.10;99.90
12408;DHT22;6268;48.188;17.134;2024-03-29T01:41:49;9.10;99.90
12408;DHT22;6268;48.188;17.134;2024-03-29T01:45:10;9.00;99.90
12408;DHT22;6268;48.188;17.134;2024-03-29T01:48:32;9.10;99.90
12408;DHT22;6268;48.188;17.134;2024-03-29T01:51:52;9.10;99.90
12408;DHT22;6268;48.188;17.134;2024-03-29T01:55:13;9.00;99.90
12408;DHT22;6268;48.188;17.134;2024-03-29T01:58:35;8.90;99.90
12408;DHT22;6268;48.188;17.134;2024-03-29T02:01:58;8.90;99.90
12408;DHT22;6268;48.188;17.134;2024-03-29T02:05:19;8.90;99.90
12408;DHT22;6268;48.188;17.134;2024-03-29T02:08:42;8.90;99.90
12408;DHT22;6268;48.188;17.134;2024-03-29T02:12:02;8.80;99.90
12408;DHT22;6268;48.188;17.134;2024-03-29T02:15:23;8.70;99.90
12408;DHT22;6268;48.188;17.134;2024-03-29T02:18:45;8.70;99.90
12408;DHT22;6268;48.188;17.134;2024-03-29T02:22:08;8.70;99.90
12408;DHT22;6268;48.188;17.134;2024-03-29T02:25:37;8.70;99.90
12408;DHT22;6268;48.188;17.134;2024-03-29T02:29:01;8.70;99.90
12408;DHT22;6268;48.188;17.134;2024-03-29T02:32:22;8.60;99.90
12408;DHT22;6268;48.188;17.134;2024-03-29T02:35:42;8.60;99.90
12408;DHT22;6268;48.188;17.134;2024-03-29T02:39:04;8.60;99.90
12408;DHT22;6268;48.188;17.134;2024-03-29T02:42:26;8.60;99.90
12408;DHT22;6268;48.188;17.134;2024-03-29T02:45:46;8.50;99.90
12408;DHT22;6268;48.188;17.134;2024-03-29T02:49:06;8.50;99.90
12408;DHT22;6268;48.188;17.134;2024-03-29T02:52:26;8.50;99.90
12408;DHT22;6268;48.188;17.134;2024-03-29T02:55:46;8.50;99.90
12408;DHT22;6268;48.188;17.134;2024-03-29T02:59:08;8.40;99.90
12408;DHT22;6268;48.188;17.134;2024-03-29T03:02:28;8.40;99.90
12408;DHT22;6268;48.188;17.134;2024-03-29T03:05:51;8.30;99.90
12408;DHT22;6268;48.188;17.134;2024-03-29T03:09:11;8.30;99.90
12408;DHT22;6268;48.188;17.134;2024-03-29T03:12:49;8.20;99.90
12408;DHT22;6268;48.188;17.134;2024-03-29T03:16:11;8.10;99.90
12408;DHT22;6268;48.188;17.134;2024-03-29T03:19:32;8.10;99.90
12408;DHT22;6268;48.188;17.134;2024-03-29T03:22:54;8.00;99.90
12408;DHT22;6268;48.188;17.134;2024-03-29T03:26:14;8.00;99.90
12408;DHT22;6268;48.188;17.134;2024-03-29T03:29:34;8.00;99.90
12408;DHT22;6268;48.188;17.134;2024-03-29T03:32:56;8.00;99.90
12408;DHT22;6268;48.188;17.134;2024-03-29T03:36:16;8.00;99.90
12408;DHT22;6268;48.188;17.134;2024-03-29T03:39:36;8.00;99.90
12408;DHT22;6268;48.188;17.134;2024-03-29T03:42:57;8.00;99.90
12408;DHT22;6268;48.188;17.134;2024-03-29T03:46:17;7.90;99.90
12408;DHT22;6268;48.188;17.134;2024-03-29T03:49:38;7.80;99.90
12408;DHT22;6268;48.188;17.134;2024-03-29T03:52:59;7.80;99.90
12408;DHT22;6268;48.188;17.134;2024-03-29T03:56:19;7.80;99.90
12408;DHT22;6268;48.188;17.134;2024-03-29T03:59:39;7.80;99.90
12408;DHT22;6268;48.188;17.134;2024-03-29T04:02:59;7.70;99.90
12408;DHT22;6268;48.188;17.134;2024-03-29T04:06:21;7.70;99.90
12408;DHT22;6268;48.188;17.134;2024-03-29T04:09:42;7.60;99.90
12408;DHT22;6268;48.188;17.134;2024-03-29T04:13:04;7.60;99.90
12408;DHT22;6268;48.188;17.134;2024-03-29T04:16:24;7.50;99.90
12408;DHT22;6268;48.188;17.134;2024-03-29T04:19:45;7.50;99.90
12408;DHT22;6268;48.188;17.134;2024-03-29T04:23:06;7.40;99.90
12408;DHT22;6268;48.188;17.134;2024-03-29T04:26:27;7.40;99.90
12408;DHT22;6268;48.188;17.134;2024-03-29T04:29:46;7.40;99.90
12408;DHT22;6268;48.188;17.134;2024-03-29T04:33:08;7.40;99.90
12408;DHT22;6268;48.188;17.134;2024-03-29T04:36:27;7.30;99.90
12408;DHT22;6268;48.188;17.134;2024-03-29T04:39:49;7.30;99.90
12408;DHT22;6268;48.188;17.134;2024-03-29T04:43:10;7.30;99.90
12408;DHT22;6268;48.188;17.134;2024-03-29T04:46:31;7.40;99.90
12408;DHT22;6268;48.188;17.134;2024-03-29T04:49:51;7.50;99.90
12408;DHT22;6268;48.188;17.134;2024-03-29T04:53:12;7.80;99.90
12408;DHT22;6268;48.188;17.134;2024-03-29T04:56:34;8.00;99.90
12408;DHT22;6268;48.188;17.134;2024-03-29T04:59:54;8.30;99.90
12408;DHT22;6268;48.188;17.134;2024-03-29T05:03:17;8.70;99.90
12408;DHT22;6268;48.188;17.134;2024-03-29T05:06:39;9.10;99.90
12408;DHT22;6268;48.188;17.134;2024-03-29T05:09:59;9.40;99.90
12408;DHT22;6268;48.188;17.134;2024-03-29T05:13:21;9.80;99.90
12408;DHT22;6268;48.188;17.134;2024-03-29T05:16:43;10.20;99.90
12408;DHT22;6268;48.188;17.134;2024-03-29T05:20:04;10.60;99.90
12408;DHT22;6268;48.188;17.134;2024-03-29T05:23:24;11.00;99.90
12408;DHT22;6268;48.188;17.134;2024-03-29T05:26:45;11.50;99.90
12408;DHT22;6268;48.188;17.134;2024-03-29T05:30:08;11.80;99.90
12408;DHT22;6268;48.188;17.134;2024-03-29T05:33:39;12.10;99.90
12408;DHT22;6268;48.188;17.134;2024-03-29T05:37:00;12.60;99.90
12408;DHT22;6268;48.188;17.134;2024-03-29T05:40:21;13.20;99.90
12408;DHT22;6268;48.188;17.134;2024-03-29T05:43:41;13.70;99.90
12408;DHT22;6268;48.188;17.134;2024-03-29T05:47:04;14.20;99.90
12408;DHT22;6268;48.188;17.134;2024-03-29T05:50:25;14.70;99.90
12408;DHT22;6268;48.188;17.134;2024-03-29T05:53:46;15.30;99.90
12408;DHT22;6268;48.188;17.134;2024-03-29T05:57:06;15.80;98.60
12408;DHT22;6268;48.188;17.134;2024-03-29T06:00:27;16.40;95.80
12408;DHT22;6268;48.188;17.134;2024-03-29T06:03:50;16.50;93.40
12408;DHT22;6268;48.188;17.134;2024-03-29T06:07:13;16.80;93.10
12408;DHT22;6268;48.188;17.134;2024-03-29T06:10:34;17.40;91.70
12408;DHT22;6268;48.188;17.134;2024-03-29T06:13:54;17.50;89.80
12408;DHT22;6268;48.188;17.134;2024-03-29T06:17:44;17.70;87.90
12408;DHT22;6268;48.188;17.134;2024-03-29T06:21:06;18.20;84.50
12408;DHT22;6268;48.188;17.134;2024-03-29T06:24:26;18.70;81.20
12408;DHT22;6268;48.188;17.134;2024-03-29T06:27:47;18.80;80.30
12408;DHT22;6268;48.188;17.134;2024-03-29T06:31:07;19.10;76.40
12408;DHT22;6268;48.188;17.134;2024-03-29T06:34:30;19.10;78.00
12408;DHT22;6268;48.188;17.134;2024-03-29T06:37:52;19.30;76.40
12408;DHT22;6268;48.188;17.134;2024-03-29T06:41:14;19.40;76.00
12408;DHT22;6268;48.188;17.134;2024-03-29T06:44:35;20.10;74.40
12408;DHT22;6268;48.188;17.134;2024-03-29T06:47:56;20.80;71.30
12408;DHT22;6268;48.188;17.134;2024-03-29T06:51:16;21.30;67.50
12408;DHT22;6268;48.188;17.134;2024-03-29T06:54:39;21.00;68.00
12408;DHT22;6268;48.188;17.134;2024-03-29T06:57:59;20.50;70.80
12408;DHT22;6268;48.188;17.134;2024-03-29T07:01:20;20.10;70.30
12408;DHT22;6268;48.188;17.134;2024-03-29T07:04:41;19.60;72.90
12408;DHT22;6268;48.188;17.134;2024-03-29T07:08:02;19.50;73.40
12408;DHT22;6268;48.188;17.134;2024-03-29T07:11:24;18.90;74.40
12408;DHT22;6268;48.188;17.134;2024-03-29T07:14:45;19.00;75.50
12408;DHT22;6268;48.188;17.134;2024-03-29T07:18:05;18.90;75.10
12408;DHT22;6268;48.188;17.134;2024-03-29T07:21:26;18.70;75.70
12408;DHT22;6268;48.188;17.134;2024-03-29T07:24:47;17.90;80.20
12408;DHT22;6268;48.188;17.134;2024-03-29T07:28:09;18.90;79.70
12408;DHT22;6268;48.188;17.134;2024-03-29T07:31:31;19.80;75.90
12408;DHT22;6268;48.188;17.134;2024-03-29T07:34:52;20.30;74.50
12408;DHT22;6268;48.188;17.134;2024-03-29T07:38:12;20.60;71.60
12408;DHT22;6268;48.188;17.134;2024-03-29T07:41:33;20.70;71.40
12408;DHT22;6268;48.188;17.134;2024-03-29T07:44:55;21.20;70.30
12408;DHT22;6268;48.188;17.134;2024-03-29T07:48:17;20.80;69.90
12408;DHT22;6268;48.188;17.134;2024-03-29T07:51:38;20.60;71.20
12408;DHT22;6268;48.188;17.134;2024-03-29T07:54:59;21.00;72.40
12408;DHT22;6268;48.188;17.134;2024-03-29T07:58:20;21.70;69.30
12408;DHT22;6268;48.188;17.134;2024-03-29T08:01:43;22.10;69.80
12408;DHT22;6268;48.188;17.134;2024-03-29T08:05:05;22.70;67.50
